createdAt,value
2022-10-05T03:56:07.682Z,15.50
2022-10-05T03:58:41.093Z,17.23
2022-10-05T04:01:19.325Z,19.25
2022-10-05T04:03:56.881Z,17.95
2022-10-05T04:06:28.000Z,20.25
2022-10-05T04:09:09.152Z,20.20
2022-10-05T04:11:40.836Z,22.45
2022-10-05T04:14:18.028Z,22.95
2022-10-05T04:16:48.332Z,22.88
2022-10-05T04:19:25.899Z,26.95
2022-10-05T04:22:03.519Z,25.55
2022-10-05T04:24:40.619Z,23.80
2022-10-05T04:27:15.679Z,28.02
2022-10-05T04:29:58.020Z,29.55
2022-10-05T04:32:36.409Z,22.88
2022-10-05T04:35:20.253Z,23.02
2022-10-05T04:38:11.859Z,25.10
2022-10-05T04:41:17.787Z,25.58
2022-10-05T04:44:13.354Z,29.58
2022-10-05T04:47:19.555Z,30.45
2022-10-05T04:50:17.635Z,32.03
2022-10-05T04:53:05.128Z,30.40
2022-10-05T04:55:58.137Z,30.55
2022-10-05T04:59:03.725Z,31.10
2022-10-05T05:01:54.700Z,30.77
2022-10-05T05:04:57.341Z,32.15
2022-10-05T05:08:04.097Z,31.42
2022-10-05T05:10:54.527Z,29.10
2022-10-05T05:13:37.505Z,24.42
2022-10-05T05:16:33.286Z,21.70
2022-10-05T05:19:16.280Z,21.90
2022-10-05T05:21:58.131Z,23.20
2022-10-05T05:24:44.858Z,25.55
2022-10-05T05:27:27.598Z,23.73
2022-10-05T05:30:07.667Z,22.30
2022-10-05T05:32:48.763Z,22.17
2022-10-05T05:35:39.734Z,24.45
2022-10-05T05:38:32.737Z,22.55
2022-10-05T05:41:10.736Z,21.50
2022-10-05T05:44:19.480Z,21.38
2022-10-05T05:47:04.083Z,19.30
2022-10-05T05:49:53.143Z,21.20
2022-10-05T05:52:31.318Z,24.92
2022-10-05T05:55:07.313Z,23.02
2022-10-05T05:57:43.364Z,22.55
2022-10-05T06:00:14.451Z,24.20
2022-10-05T06:03:02.361Z,25.17
2022-10-05T06:05:40.707Z,20.95
2022-10-05T06:08:18.681Z,21.80
2022-10-05T06:10:56.500Z,24.55
2022-10-05T06:13:31.138Z,21.60
2022-10-05T06:16:08.503Z,25.23
2022-10-05T06:18:40.108Z,25.85
2022-10-05T06:21:27.122Z,24.38
2022-10-05T06:24:25.786Z,26.77
2022-10-05T06:27:44.128Z,27.17
2022-10-05T06:30:17.632Z,27.02
2022-10-05T06:33:07.509Z,27.98
2022-10-05T06:35:34.957Z,27.73
2022-10-05T06:38:49.380Z,27.45
2022-10-05T06:41:41.699Z,28.75
2022-10-05T06:44:21.640Z,29.63
2022-10-05T06:47:23.229Z,30.90
2022-10-05T06:50:52.630Z,29.90
2022-10-05T06:53:50.714Z,30.73
2022-10-05T06:56:36.616Z,34.17
2022-10-05T06:59:23.237Z,36.40
2022-10-05T07:02:33.950Z,33.70
2022-10-05T07:05:21.500Z,36.90
2022-10-05T07:07:59.695Z,42.72
2022-10-05T07:10:46.369Z,43.42
2022-10-05T07:13:35.499Z,44.78
2022-10-05T07:16:30.302Z,42.63
2022-10-05T07:19:13.301Z,43.88
2022-10-05T07:21:58.763Z,43.25
2022-10-05T07:24:42.977Z,45.03
2022-10-05T07:27:17.759Z,53.13
2022-10-05T07:29:50.789Z,49.42
2022-10-05T07:32:32.837Z,47.22
2022-10-05T07:35:41.171Z,47.05
2022-10-05T07:38:32.638Z,45.58
2022-10-05T07:44:12.562Z,46.17
2022-10-05T07:47:03.168Z,50.10
2022-10-05T07:49:52.016Z,47.85
2022-10-05T07:52:34.672Z,48.83
2022-10-05T07:55:20.985Z,48.33
2022-10-05T07:58:16.896Z,48.03
2022-10-05T08:01:06.312Z,46.67
2022-10-05T08:03:54.857Z,47.65
2022-10-05T08:06:37.664Z,45.80
2022-10-05T08:09:20.815Z,44.75
2022-10-05T08:12:17.875Z,45.63
2022-10-05T08:15:13.880Z,46.25
2022-10-05T08:18:04.322Z,44.08
2022-10-05T08:20:52.375Z,42.05
2022-10-05T08:23:31.037Z,42.72
2022-10-05T08:26:16.247Z,44.22
2022-10-05T08:29:04.914Z,43.78
2022-10-05T08:31:36.060Z,45.58
2022-10-05T08:34:21.014Z,44.40
2022-10-05T08:37:02.031Z,42.53
2022-10-05T08:39:37.317Z,43.80
2022-10-05T08:42:26.237Z,42.80
2022-10-05T08:45:18.648Z,40.80
2022-10-05T08:48:04.645Z,42.03
2022-10-05T08:51:13.612Z,42.30
2022-10-05T08:54:02.298Z,42.20
2022-10-05T08:56:41.783Z,42.35
2022-10-05T08:59:22.068Z,42.63
2022-10-05T09:02:26.254Z,42.22
2022-10-05T09:05:25.702Z,53.08
2022-10-05T09:08:31.062Z,55.80
2022-10-05T09:11:06.999Z,54.63
2022-10-05T09:14:28.358Z,52.42
2022-10-05T09:17:17.777Z,52.03
2022-10-05T09:19:53.721Z,54.50
2022-10-05T09:22:21.579Z,50.17
2022-10-05T09:24:57.174Z,47.95
2022-10-05T09:27:37.865Z,45.08
2022-10-05T09:30:27.092Z,43.42
2022-10-05T09:32:57.986Z,43.72
2022-10-05T09:35:44.242Z,40.78
2022-10-05T09:38:50.325Z,37.53
2022-10-05T09:41:35.864Z,34.75
2022-10-05T09:44:15.569Z,34.30
2022-10-05T09:47:04.795Z,37.58
2022-10-05T09:49:57.399Z,35.53
2022-10-05T09:52:42.572Z,34.42
2022-10-05T09:55:41.527Z,32.72
2022-10-05T09:58:42.294Z,31.42
2022-10-05T10:01:34.904Z,32.13
2022-10-05T10:04:11.276Z,32.08
2022-10-05T10:06:51.425Z,27.33
2022-10-05T10:09:46.640Z,26.08
2022-10-05T10:12:36.281Z,26.48
2022-10-05T10:15:44.702Z,26.02
2022-10-05T10:18:28.629Z,26.10
2022-10-05T10:21:25.318Z,24.92
2022-10-05T10:24:57.670Z,24.55
2022-10-05T10:27:33.312Z,24.55
2022-10-05T10:30:26.305Z,24.73
2022-10-05T10:33:52.614Z,24.90
2022-10-05T10:36:34.852Z,24.73
2022-10-05T10:39:21.200Z,24.20
2022-10-05T10:42:00.881Z,22.58
2022-10-05T10:44:47.261Z,24.27
2022-10-05T10:47:18.268Z,23.70
2022-10-05T10:50:05.043Z,20.85
2022-10-05T10:53:01.713Z,20.85
2022-10-05T10:55:59.784Z,20.33
2022-10-05T10:59:09.034Z,20.70
2022-10-05T11:02:18.497Z,17.98
2022-10-05T11:05:04.652Z,19.15
2022-10-05T11:08:03.288Z,18.77
2022-10-05T11:10:55.670Z,18.77
2022-10-05T11:13:47.916Z,18.10
2022-10-05T11:16:27.387Z,17.85
2022-10-05T11:20:07.307Z,16.60
2022-10-05T11:23:19.305Z,17.55
2022-10-05T11:28:50.295Z,16.73
2022-10-05T11:31:36.557Z,16.13
2022-10-05T11:34:13.563Z,16.70
2022-10-05T11:36:50.194Z,17.23
2022-10-05T11:39:39.488Z,15.65
2022-10-05T11:42:25.485Z,13.23
2022-10-05T11:45:24.834Z,15.02
2022-10-05T11:48:26.621Z,14.70
2022-10-05T11:53:43.858Z,15.32
2022-10-05T11:56:11.095Z,14.88
2022-10-05T11:58:49.473Z,14.95
2022-10-05T12:01:29.676Z,14.43
2022-10-05T12:04:05.456Z,13.05
2022-10-05T12:06:51.441Z,14.38
2022-10-05T12:09:34.614Z,13.20
2022-10-05T12:12:18.895Z,12.82
2022-10-05T12:14:52.632Z,14.32
2022-10-05T12:17:37.663Z,15.80
2022-10-05T12:20:41.152Z,16.00
2022-10-05T12:23:27.429Z,16.20
2022-10-05T12:25:55.665Z,14.82
2022-10-05T12:28:33.372Z,16.95
2022-10-05T12:31:22.490Z,15.10
2022-10-05T12:34:02.450Z,16.13
2022-10-05T12:37:03.441Z,17.52
2022-10-05T12:40:13.591Z,16.55
2022-10-05T12:43:10.343Z,21.58
2022-10-05T12:46:17.726Z,21.20
2022-10-05T12:49:15.698Z,21.77
2022-10-05T12:52:01.477Z,20.52
2022-10-05T12:54:58.138Z,20.08
2022-10-05T12:57:46.101Z,22.48
2022-10-05T13:00:22.695Z,22.30
2022-10-05T13:03:02.101Z,22.48
2022-10-05T13:05:44.792Z,21.85
2022-10-05T13:08:20.912Z,22.30
2022-10-05T13:10:48.332Z,20.90
2022-10-05T13:13:25.210Z,20.63
2022-10-05T13:15:58.204Z,24.40
2022-10-05T13:18:37.492Z,23.08
2022-10-05T13:21:29.504Z,23.48
2022-10-05T13:24:22.310Z,24.05
2022-10-05T13:26:55.226Z,25.10
2022-10-05T13:29:33.222Z,22.50
2022-10-05T13:32:09.900Z,20.92
2022-10-05T13:35:14.780Z,22.42
2022-10-05T13:38:00.320Z,18.42
2022-10-05T13:40:42.227Z,20.85
2022-10-05T13:43:13.587Z,22.27
2022-10-05T13:46:05.548Z,23.17
2022-10-05T13:49:03.101Z,24.02
2022-10-05T13:51:52.613Z,19.02
2022-10-05T13:54:42.537Z,22.05
2022-10-05T13:57:47.192Z,19.25
2022-10-05T14:00:25.669Z,24.02
2022-10-05T14:02:57.278Z,23.10
2022-10-05T14:05:27.167Z,18.35
2022-10-05T14:08:16.563Z,21.73
2022-10-05T14:10:46.692Z,21.73
2022-10-05T14:13:29.380Z,20.83
2022-10-05T14:16:04.357Z,19.65
2022-10-05T14:18:36.314Z,19.63
2022-10-05T14:21:12.787Z,21.38
2022-10-05T14:23:40.632Z,20.55
2022-10-05T14:26:40.323Z,20.17
2022-10-05T14:29:24.775Z,18.80
2022-10-05T14:32:00.996Z,21.23
2022-10-05T14:34:36.723Z,21.83
2022-10-05T14:37:20.365Z,22.58
2022-10-05T14:39:49.924Z,23.13
2022-10-05T14:42:23.407Z,20.02
2022-10-05T14:45:11.568Z,21.17
2022-10-05T14:48:10.362Z,22.75
2022-10-05T14:51:04.264Z,21.25
2022-10-05T14:53:45.826Z,23.40
2022-10-05T14:56:41.351Z,25.48
2022-10-05T14:59:12.500Z,24.85
2022-10-05T15:01:49.335Z,24.50
2022-10-05T15:04:35.574Z,23.67
2022-10-05T15:07:14.253Z,24.77
2022-10-05T15:10:03.293Z,25.63
2022-10-05T15:12:39.707Z,25.42
2022-10-05T15:15:28.891Z,28.52
2022-10-05T15:18:34.922Z,29.52
2022-10-05T15:21:09.032Z,29.27
2022-10-05T15:23:43.693Z,29.75
2022-10-05T15:26:28.702Z,29.67
2022-10-05T15:29:19.128Z,27.30
2022-10-05T15:32:03.234Z,28.88
2022-10-05T15:34:50.638Z,26.48
2022-10-05T15:37:25.397Z,29.17
2022-10-05T15:39:57.047Z,26.67
2022-10-05T15:42:44.079Z,27.65
2022-10-05T15:45:23.519Z,26.58
2022-10-05T15:48:05.635Z,27.15
2022-10-05T15:50:41.851Z,26.23
2022-10-05T15:53:43.019Z,27.80
2022-10-05T15:56:10.281Z,25.75
2022-10-05T15:59:11.298Z,27.15
2022-10-05T16:01:51.850Z,28.42
2022-10-05T16:05:40.908Z,28.63
2022-10-05T16:08:39.372Z,29.10
2022-10-05T16:11:19.060Z,28.17
2022-10-05T16:14:14.516Z,27.30
2022-10-05T16:16:59.792Z,27.88
2022-10-05T16:20:04.251Z,26.27
2022-10-05T16:22:49.991Z,25.48
2022-10-05T16:25:25.897Z,26.27
2022-10-05T16:28:05.752Z,24.88
2022-10-05T16:31:06.822Z,27.85
2022-10-05T16:33:44.579Z,28.50
2022-10-05T16:36:37.649Z,26.42
2022-10-05T16:39:11.940Z,27.30
2022-10-05T16:42:05.454Z,27.38
2022-10-05T16:44:44.503Z,26.75
2022-10-05T16:47:27.443Z,36.30
2022-10-05T16:50:00.313Z,31.50
2022-10-05T16:52:29.293Z,29.92
2022-10-05T16:55:02.925Z,27.75
2022-10-05T16:57:37.694Z,27.52
2022-10-05T17:00:08.114Z,30.05
2022-10-05T17:02:46.133Z,27.00
2022-10-05T17:05:38.755Z,26.75
2022-10-05T17:08:18.252Z,25.52
2022-10-05T17:11:00.128Z,24.45
2022-10-05T17:13:37.404Z,24.65
2022-10-05T17:16:25.012Z,22.15
2022-10-05T17:18:55.400Z,21.73
2022-10-05T17:21:35.113Z,21.13
2022-10-05T17:24:11.997Z,20.02
2022-10-05T17:26:45.339Z,20.15
2022-10-05T17:29:32.143Z,19.70
2022-10-05T17:32:06.691Z,20.10
2022-10-05T17:34:37.950Z,20.60
2022-10-05T17:37:26.965Z,21.07
2022-10-05T17:39:56.104Z,20.17
2022-10-05T17:42:26.728Z,20.48
2022-10-05T17:45:20.648Z,20.90
2022-10-05T17:48:00.944Z,20.95
2022-10-05T17:51:03.184Z,21.67
2022-10-05T17:54:01.544Z,21.10
2022-10-05T17:56:31.572Z,21.65
2022-10-05T17:59:04.511Z,21.30
2022-10-05T18:01:41.428Z,21.58
2022-10-05T18:04:12.081Z,22.98
2022-10-05T18:06:39.632Z,22.17
2022-10-05T18:09:22.404Z,22.38
2022-10-05T18:12:24.824Z,23.35
2022-10-05T18:15:07.085Z,25.38
2022-10-05T18:17:37.022Z,32.08
2022-10-05T18:20:21.742Z,33.63
2022-10-05T18:22:50.788Z,27.35
2022-10-05T18:25:38.203Z,28.33
2022-10-05T18:28:34.394Z,38.08
2022-10-05T18:31:11.526Z,32.67
2022-10-05T18:34:13.230Z,37.13
2022-10-05T18:37:04.629Z,32.45
2022-10-05T18:40:05.125Z,33.00
2022-10-05T18:43:09.550Z,31.95
2022-10-05T18:45:52.127Z,34.10
2022-10-05T18:48:22.607Z,34.83
2022-10-05T18:50:55.845Z,35.70
2022-10-05T18:53:53.641Z,37.70
2022-10-05T18:56:34.556Z,37.88
2022-10-05T18:59:29.661Z,35.35
2022-10-05T19:02:24.586Z,34.63
2022-10-05T19:05:23.602Z,32.50
2022-10-05T19:08:15.640Z,34.72
2022-10-05T19:10:50.704Z,34.78
2022-10-05T19:13:31.577Z,35.58
2022-10-05T19:16:17.243Z,36.85
2022-10-05T19:19:07.602Z,38.20
2022-10-05T19:22:10.068Z,38.35
2022-10-05T19:28:05.915Z,36.90
2022-10-05T19:31:01.527Z,36.63
2022-10-05T19:33:49.838Z,39.08
2022-10-05T19:36:55.449Z,38.22
2022-10-05T19:39:39.532Z,38.28
2022-10-05T19:42:29.448Z,38.78
2022-10-05T19:45:28.756Z,38.65
2022-10-05T19:48:26.085Z,39.42
2022-10-05T19:50:59.468Z,39.90
2022-10-05T19:53:37.778Z,38.33
2022-10-05T19:56:32.881Z,37.63
2022-10-05T19:59:13.296Z,37.25
2022-10-05T20:01:49.503Z,38.35
2022-10-05T20:04:35.759Z,39.50
2022-10-05T20:07:04.785Z,39.25
2022-10-05T20:09:58.456Z,38.03
2022-10-05T20:12:52.493Z,38.88
2022-10-05T20:15:43.079Z,40.63
2022-10-05T20:18:56.396Z,41.13
2022-10-05T20:21:45.440Z,42.17
2022-10-05T20:24:26.801Z,39.30
2022-10-05T20:27:05.146Z,39.53
2022-10-05T20:29:41.442Z,38.70
2022-10-05T20:32:12.319Z,38.78
2022-10-05T20:34:42.988Z,37.67
2022-10-05T20:37:13.432Z,38.50
2022-10-05T20:39:42.440Z,38.22
2022-10-05T20:42:11.474Z,38.00
2022-10-05T20:44:40.827Z,39.10
2022-10-05T20:47:09.551Z,39.10
2022-10-05T20:49:41.234Z,42.70
2022-10-05T20:52:11.418Z,42.78
2022-10-05T20:54:39.448Z,40.80
2022-10-05T20:57:10.405Z,42.47
2022-10-05T20:59:39.122Z,40.53
2022-10-05T21:02:07.436Z,42.05
2022-10-05T21:04:40.923Z,44.28
2022-10-05T21:07:12.413Z,43.03
2022-10-05T21:09:42.434Z,41.22
2022-10-05T21:12:11.565Z,41.55
2022-10-05T21:14:40.593Z,41.65
2022-10-05T21:17:09.537Z,40.78
2022-10-05T21:19:39.372Z,43.08
2022-10-05T21:22:09.283Z,41.28
2022-10-05T21:24:39.543Z,40.05
2022-10-05T21:27:07.344Z,39.67
2022-10-05T21:29:37.013Z,39.90
2022-10-05T21:32:08.782Z,40.60
2022-10-05T21:34:37.151Z,41.50
2022-10-05T21:37:05.335Z,42.65
2022-10-05T21:39:36.833Z,42.55
